sensor_id;sensor_type;location;lat;lon;timestamp;P1;durP1;ratioP1;P2;durP2;ratioP2
5555;SDS011;2801;50.972;7.856;2023-03-01T00:01:37;17.93;;;9.07;;
5555;SDS011;2801;50.972;7.856;2023-03-01T00:04:05;19.20;;;9.60;;
5555;SDS011;2801;50.972;7.856;2023-03-01T00:06:31;17.77;;;9.50;;
5555;SDS011;2801;50.972;7.856;2023-03-01T00:08:59;18.33;;;9.23;;
5555;SDS011;2801;50.972;7.856;2023-03-01T00:11:27;16.73;;;8.57;;
5555;SDS011;2801;50.972;7.856;2023-03-01T00:13:57;16.40;;;9.20;;
5555;SDS011;2801;50.972;7.856;2023-03-01T00:16:32;15.73;;;8.50;;
5555;SDS011;2801;50.972;7.856;2023-03-01T00:19:05;17.43;;;9.10;;
5555;SDS011;2801;50.972;7.856;2023-03-01T00:21:35;16.63;;;8.43;;
5555;SDS011;2801;50.972;7.856;2023-03-01T00:24:02;14.93;;;8.60;;
5555;SDS011;2801;50.972;7.856;2023-03-01T00:26:29;15.93;;;8.93;;
5555;SDS011;2801;50.972;7.856;2023-03-01T00:28:57;18.73;;;9.47;;
5555;SDS011;2801;50.972;7.856;2023-03-01T00:31:26;17.43;;;8.97;;
5555;SDS011;2801;50.972;7.856;2023-03-01T00:33:56;19.87;;;9.43;;
5555;SDS011;2801;50.972;7.856;2023-03-01T00:36:27;17.43;;;8.97;;
5555;SDS011;2801;50.972;7.856;2023-03-01T00:39:00;19.00;;;9.47;;
5555;SDS011;2801;50.972;7.856;2023-03-01T00:41:30;16.50;;;8.67;;
5555;SDS011;2801;50.972;7.856;2023-03-01T00:43:57;16.97;;;9.17;;
5555;SDS011;2801;50.972;7.856;2023-03-01T00:46:25;15.80;;;8.63;;
5555;SDS011;2801;50.972;7.856;2023-03-01T00:48:53;16.43;;;9.50;;
5555;SDS011;2801;50.972;7.856;2023-03-01T00:51:22;16.63;;;9.70;;
5555;SDS011;2801;50.972;7.856;2023-03-01T00:53:56;15.53;;;8.57;;
5555;SDS011;2801;50.972;7.856;2023-03-01T00:56:26;21.23;;;8.80;;
5555;SDS011;2801;50.972;7.856;2023-03-01T00:58:54;16.37;;;8.73;;
5555;SDS011;2801;50.972;7.856;2023-03-01T01:01:22;20.37;;;9.57;;
5555;SDS011;2801;50.972;7.856;2023-03-01T01:03:59;16.47;;;8.37;;
5555;SDS011;2801;50.972;7.856;2023-03-01T01:06:41;17.93;;;8.13;;
5555;SDS011;2801;50.972;7.856;2023-03-01T01:09:11;18.27;;;9.03;;
5555;SDS011;2801;50.972;7.856;2023-03-01T01:11:46;17.00;;;8.90;;
5555;SDS011;2801;50.972;7.856;2023-03-01T01:14:16;19.10;;;9.70;;
5555;SDS011;2801;50.972;7.856;2023-03-01T01:16:45;21.23;;;10.50;;
5555;SDS011;2801;50.972;7.856;2023-03-01T01:19:11;20.93;;;9.80;;
5555;SDS011;2801;50.972;7.856;2023-03-01T01:21:39;18.70;;;9.77;;
5555;SDS011;2801;50.972;7.856;2023-03-01T01:24:09;20.23;;;9.10;;
5555;SDS011;2801;50.972;7.856;2023-03-01T01:26:37;16.80;;;8.83;;
5555;SDS011;2801;50.972;7.856;2023-03-01T01:29:04;18.40;;;9.03;;
5555;SDS011;2801;50.972;7.856;2023-03-01T01:31:32;16.20;;;8.93;;
5555;SDS011;2801;50.972;7.856;2023-03-01T01:34:01;19.43;;;9.50;;
5555;SDS011;2801;50.972;7.856;2023-03-01T01:36:31;13.03;;;6.73;;
5555;SDS011;2801;50.972;7.856;2023-03-01T01:38:59;19.57;;;9.33;;
5555;SDS011;2801;50.972;7.856;2023-03-01T01:41:28;14.20;;;8.47;;
5555;SDS011;2801;50.972;7.856;2023-03-01T01:44:09;20.07;;;8.93;;
5555;SDS011;2801;50.972;7.856;2023-03-01T01:46:50;17.70;;;9.03;;
5555;SDS011;2801;50.972;7.856;2023-03-01T01:49:37;17.47;;;9.47;;
5555;SDS011;2801;50.972;7.856;2023-03-01T01:52:11;17.70;;;9.37;;
5555;SDS011;2801;50.972;7.856;2023-03-01T01:54:59;18.77;;;8.80;;
5555;SDS011;2801;50.972;7.856;2023-03-01T01:57:39;19.83;;;9.30;;
5555;SDS011;2801;50.972;7.856;2023-03-01T02:00:15;18.40;;;8.90;;
5555;SDS011;2801;50.972;7.856;2023-03-01T02:02:47;15.63;;;8.20;;
5555;SDS011;2801;50.972;7.856;2023-03-01T02:05:42;15.93;;;8.23;;
5555;SDS011;2801;50.972;7.856;2023-03-01T02:08:21;18.03;;;8.67;;
5555;SDS011;2801;50.972;7.856;2023-03-01T02:10:52;18.80;;;10.03;;
5555;SDS011;2801;50.972;7.856;2023-03-01T02:13:22;16.77;;;9.17;;
5555;SDS011;2801;50.972;7.856;2023-03-01T02:15:49;16.87;;;8.73;;
5555;SDS011;2801;50.972;7.856;2023-03-01T02:18:17;17.33;;;9.10;;
5555;SDS011;2801;50.972;7.856;2023-03-01T02:20:57;16.97;;;9.00;;
5555;SDS011;2801;50.972;7.856;2023-03-01T02:23:48;21.00;;;9.07;;
5555;SDS011;2801;50.972;7.856;2023-03-01T02:26:35;16.53;;;9.03;;
5555;SDS011;2801;50.972;7.856;2023-03-01T02:29:12;14.97;;;8.57;;
5555;SDS011;2801;50.972;7.856;2023-03-01T02:31:39;16.90;;;8.57;;
5555;SDS011;2801;50.972;7.856;2023-03-01T02:34:11;17.57;;;8.93;;
5555;SDS011;2801;50.972;7.856;2023-03-01T02:36:51;19.17;;;9.07;;
5555;SDS011;2801;50.972;7.856;2023-03-01T02:39:48;18.10;;;8.43;;
5555;SDS011;2801;50.972;7.856;2023-03-01T02:42:26;17.63;;;9.10;;
5555;SDS011;2801;50.972;7.856;2023-03-01T02:44:59;20.07;;;9.40;;
5555;SDS011;2801;50.972;7.856;2023-03-01T02:47:25;19.67;;;9.37;;
5555;SDS011;2801;50.972;7.856;2023-03-01T02:49:52;20.33;;;10.47;;
5555;SDS011;2801;50.972;7.856;2023-03-01T02:52:32;17.30;;;9.07;;
5555;SDS011;2801;50.972;7.856;2023-03-01T02:55:08;18.27;;;9.47;;
5555;SDS011;2801;50.972;7.856;2023-03-01T02:57:42;18.23;;;8.60;;
5555;SDS011;2801;50.972;7.856;2023-03-01T03:00:12;20.63;;;9.50;;
5555;SDS011;2801;50.972;7.856;2023-03-01T03:02:49;16.90;;;8.50;;
5555;SDS011;2801;50.972;7.856;2023-03-01T03:05:20;19.50;;;9.73;;
5555;SDS011;2801;50.972;7.856;2023-03-01T03:07:51;17.70;;;8.97;;
5555;SDS011;2801;50.972;7.856;2023-03-01T03:10:20;16.77;;;8.67;;
5555;SDS011;2801;50.972;7.856;2023-03-01T03:12:55;15.53;;;8.57;;
5555;SDS011;2801;50.972;7.856;2023-03-01T03:15:28;20.53;;;9.27;;
5555;SDS011;2801;50.972;7.856;2023-03-01T03:17:56;18.80;;;9.10;;
5555;SDS011;2801;50.972;7.856;2023-03-01T03:20:25;20.47;;;8.97;;
5555;SDS011;2801;50.972;7.856;2023-03-01T03:22:55;18.20;;;9.00;;
5555;SDS011;2801;50.972;7.856;2023-03-01T03:25:27;19.47;;;8.97;;
5555;SDS011;2801;50.972;7.856;2023-03-01T03:27:55;20.90;;;9.57;;
5555;SDS011;2801;50.972;7.856;2023-03-01T03:30:25;19.73;;;9.90;;
5555;SDS011;2801;50.972;7.856;2023-03-01T03:32:56;19.00;;;8.87;;
5555;SDS011;2801;50.972;7.856;2023-03-01T03:35:26;19.97;;;9.07;;
5555;SDS011;2801;50.972;7.856;2023-03-01T03:37:59;16.03;;;9.03;;
5555;SDS011;2801;50.972;7.856;2023-03-01T03:40:36;19.90;;;9.47;;
5555;SDS011;2801;50.972;7.856;2023-03-01T03:43:12;19.43;;;8.87;;
5555;SDS011;2801;50.972;7.856;2023-03-01T03:45:43;17.57;;;8.47;;
5555;SDS011;2801;50.972;7.856;2023-03-01T03:48:12;16.67;;;8.67;;
5555;SDS011;2801;50.972;7.856;2023-03-01T03:50:39;17.80;;;9.13;;
5555;SDS011;2801;50.972;7.856;2023-03-01T03:53:08;15.27;;;8.20;;
5555;SDS011;2801;50.972;7.856;2023-03-01T03:55:38;19.53;;;9.37;;
5555;SDS011;2801;50.972;7.856;2023-03-01T03:58:06;19.50;;;9.90;;
5555;SDS011;2801;50.972;7.856;2023-03-01T04:00:36;19.30;;;10.03;;
5555;SDS011;2801;50.972;7.856;2023-03-01T04:03:10;18.30;;;9.03;;
5555;SDS011;2801;50.972;7.856;2023-03-01T04:05:40;19.63;;;9.53;;
5555;SDS011;2801;50.972;7.856;2023-03-01T04:08:08;19.87;;;8.83;;
5555;SDS011;2801;50.972;7.856;2023-03-01T04:10:45;15.93;;;9.00;;
5555;SDS011;2801;50.972;7.856;2023-03-01T04:13:15;17.37;;;9.67;;
5555;SDS011;2801;50.972;7.856;2023-03-01T04:15:48;18.63;;;9.50;;
5555;SDS011;2801;50.972;7.856;2023-03-01T04:18:21;19.53;;;9.67;;
5555;SDS011;2801;50.972;7.856;2023-03-01T04:20:49;18.63;;;9.77;;
5555;SDS011;2801;50.972;7.856;2023-03-01T04:23:18;18.37;;;8.50;;
5555;SDS011;2801;50.972;7.856;2023-03-01T04:31:04;16.90;;;8.83;;
5555;SDS011;2801;50.972;7.856;2023-03-01T04:33:45;21.07;;;9.70;;
5555;SDS011;2801;50.972;7.856;2023-03-01T04:36:12;19.10;;;9.83;;
5555;SDS011;2801;50.972;7.856;2023-03-01T04:38:41;21.70;;;9.30;;
5555;SDS011;2801;50.972;7.856;2023-03-01T04:41:14;18.50;;;9.00;;
5555;SDS011;2801;50.972;7.856;2023-03-01T04:43:44;20.53;;;10.50;;
5555;SDS011;2801;50.972;7.856;2023-03-01T04:46:12;21.33;;;9.97;;
5555;SDS011;2801;50.972;7.856;2023-03-01T04:48:44;21.87;;;10.17;;
5555;SDS011;2801;50.972;7.856;2023-03-01T04:51:13;18.30;;;9.13;;
5555;SDS011;2801;50.972;7.856;2023-03-01T04:53:40;19.87;;;10.40;;
5555;SDS011;2801;50.972;7.856;2023-03-01T04:56:08;18.57;;;10.07;;
5555;SDS011;2801;50.972;7.856;2023-03-01T04:58:36;19.87;;;9.57;;
5555;SDS011;2801;50.972;7.856;2023-03-01T05:01:13;19.20;;;9.77;;
5555;SDS011;2801;50.972;7.856;2023-03-01T05:03:44;20.27;;;10.50;;
5555;SDS011;2801;50.972;7.856;2023-03-01T05:06:14;21.23;;;10.27;;
5555;SDS011;2801;50.972;7.856;2023-03-01T05:08:43;21.17;;;9.93;;
5555;SDS011;2801;50.972;7.856;2023-03-01T05:11:10;19.13;;;9.97;;
5555;SDS011;2801;50.972;7.856;2023-03-01T05:13:38;19.10;;;9.57;;
5555;SDS011;2801;50.972;7.856;2023-03-01T05:16:06;21.90;;;10.53;;
5555;SDS011;2801;50.972;7.856;2023-03-01T05:18:38;20.73;;;10.17;;
5555;SDS011;2801;50.972;7.856;2023-03-01T05:21:10;24.60;;;10.23;;
5555;SDS011;2801;50.972;7.856;2023-03-01T05:23:39;27.00;;;10.73;;
5555;SDS011;2801;50.972;7.856;2023-03-01T05:26:06;19.60;;;10.23;;
5555;SDS011;2801;50.972;7.856;2023-03-01T05:28:47;18.90;;;10.40;;
5555;SDS011;2801;50.972;7.856;2023-03-01T05:31:14;19.33;;;9.97;;
5555;SDS011;2801;50.972;7.856;2023-03-01T05:33:41;27.93;;;11.93;;
5555;SDS011;2801;50.972;7.856;2023-03-01T05:36:09;19.50;;;9.00;;
5555;SDS011;2801;50.972;7.856;2023-03-01T05:38:36;19.40;;;10.60;;
5555;SDS011;2801;50.972;7.856;2023-03-01T05:41:03;21.73;;;10.83;;
5555;SDS011;2801;50.972;7.856;2023-03-01T05:43:31;26.07;;;11.67;;
5555;SDS011;2801;50.972;7.856;2023-03-01T05:46:00;25.90;;;11.70;;
5555;SDS011;2801;50.972;7.856;2023-03-01T05:48:28;21.37;;;10.67;;
5555;SDS011;2801;50.972;7.856;2023-03-01T05:50:58;22.80;;;11.27;;
5555;SDS011;2801;50.972;7.856;2023-03-01T05:53:26;26.93;;;11.40;;
5555;SDS011;2801;50.972;7.856;2023-03-01T05:55:53;27.53;;;11.60;;
5555;SDS011;2801;50.972;7.856;2023-03-01T05:58:21;25.97;;;10.57;;
5555;SDS011;2801;50.972;7.856;2023-03-01T06:00:48;25.23;;;11.27;;
5555;SDS011;2801;50.972;7.856;2023-03-01T06:03:18;19.87;;;10.10;;
5555;SDS011;2801;50.972;7.856;2023-03-01T06:05:45;22.37;;;10.50;;
5555;SDS011;2801;50.972;7.856;2023-03-01T06:08:12;18.50;;;9.63;;
5555;SDS011;2801;50.972;7.856;2023-03-01T06:10:40;19.37;;;9.47;;
5555;SDS011;2801;50.972;7.856;2023-03-01T06:13:07;23.97;;;10.33;;
5555;SDS011;2801;50.972;7.856;2023-03-01T06:15:34;21.60;;;10.23;;
5555;SDS011;2801;50.972;7.856;2023-03-01T06:18:01;20.40;;;10.10;;
5555;SDS011;2801;50.972;7.856;2023-03-01T06:20:28;19.83;;;10.00;;
5555;SDS011;2801;50.972;7.856;2023-03-01T06:22:55;25.07;;;10.77;;
5555;SDS011;2801;50.972;7.856;2023-03-01T06:25:23;23.87;;;11.50;;
5555;SDS011;2801;50.972;7.856;2023-03-01T06:27:52;21.47;;;10.63;;
5555;SDS011;2801;50.972;7.856;2023-03-01T06:30:20;24.87;;;11.90;;
5555;SDS011;2801;50.972;7.856;2023-03-01T06:32:49;24.80;;;11.20;;
5555;SDS011;2801;50.972;7.856;2023-03-01T06:35:17;32.23;;;12.67;;
5555;SDS011;2801;50.972;7.856;2023-03-01T06:37:45;24.37;;;11.87;;
5555;SDS011;2801;50.972;7.856;2023-03-01T06:40:13;27.03;;;12.20;;
5555;SDS011;2801;50.972;7.856;2023-03-01T06:42:42;25.20;;;13.33;;
5555;SDS011;2801;50.972;7.856;2023-03-01T06:45:18;29.83;;;13.70;;
5555;SDS011;2801;50.972;7.856;2023-03-01T06:47:47;28.00;;;13.30;;
5555;SDS011;2801;50.972;7.856;2023-03-01T06:50:14;32.10;;;14.07;;
5555;SDS011;2801;50.972;7.856;2023-03-01T06:52:42;32.63;;;13.37;;
5555;SDS011;2801;50.972;7.856;2023-03-01T06:55:11;34.67;;;15.07;;
5555;SDS011;2801;50.972;7.856;2023-03-01T06:57:39;31.30;;;13.47;;
5555;SDS011;2801;50.972;7.856;2023-03-01T07:00:06;30.43;;;14.03;;
5555;SDS011;2801;50.972;7.856;2023-03-01T07:02:34;33.57;;;14.87;;
5555;SDS011;2801;50.972;7.856;2023-03-01T07:05:01;27.67;;;14.03;;
5555;SDS011;2801;50.972;7.856;2023-03-01T07:07:28;29.03;;;13.97;;
5555;SDS011;2801;50.972;7.856;2023-03-01T07:09:55;33.40;;;15.60;;
5555;SDS011;2801;50.972;7.856;2023-03-01T07:12:21;33.40;;;14.83;;
5555;SDS011;2801;50.972;7.856;2023-03-01T07:14:52;34.23;;;14.97;;
5555;SDS011;2801;50.972;7.856;2023-03-01T07:17:19;32.10;;;13.60;;
5555;SDS011;2801;50.972;7.856;2023-03-01T07:19:46;32.93;;;14.97;;
5555;SDS011;2801;50.972;7.856;2023-03-01T07:22:13;29.67;;;14.07;;
5555;SDS011;2801;50.972;7.856;2023-03-01T07:24:40;24.37;;;12.97;;
5555;SDS011;2801;50.972;7.856;2023-03-01T07:27:10;27.07;;;14.03;;
5555;SDS011;2801;50.972;7.856;2023-03-01T07:29:37;25.73;;;13.50;;
5555;SDS011;2801;50.972;7.856;2023-03-01T07:32:04;22.47;;;12.37;;
5555;SDS011;2801;50.972;7.856;2023-03-01T07:34:33;22.20;;;11.80;;
5555;SDS011;2801;50.972;7.856;2023-03-01T07:37:00;27.07;;;13.60;;
5555;SDS011;2801;50.972;7.856;2023-03-01T07:39:27;23.27;;;12.10;;
5555;SDS011;2801;50.972;7.856;2023-03-01T07:41:54;26.10;;;12.23;;
5555;SDS011;2801;50.972;7.856;2023-03-01T07:44:21;25.60;;;13.23;;
5555;SDS011;2801;50.972;7.856;2023-03-01T07:46:48;22.13;;;11.87;;
5555;SDS011;2801;50.972;7.856;2023-03-01T07:49:15;21.00;;;10.70;;
5555;SDS011;2801;50.972;7.856;2023-03-01T07:51:42;16.20;;;8.10;;
5555;SDS011;2801;50.972;7.856;2023-03-01T07:54:09;14.73;;;8.23;;
5555;SDS011;2801;50.972;7.856;2023-03-01T07:56:36;12.23;;;6.37;;
5555;SDS011;2801;50.972;7.856;2023-03-01T07:59:03;13.50;;;7.07;;
5555;SDS011;2801;50.972;7.856;2023-03-01T08:01:30;9.90;;;5.53;;
5555;SDS011;2801;50.972;7.856;2023-03-01T08:03:57;15.63;;;7.40;;
5555;SDS011;2801;50.972;7.856;2023-03-01T08:06:23;13.93;;;6.27;;
5555;SDS011;2801;50.972;7.856;2023-03-01T08:08:50;13.17;;;6.57;;
5555;SDS011;2801;50.972;7.856;2023-03-01T08:11:17;5.33;;;3.33;;
5555;SDS011;2801;50.972;7.856;2023-03-01T08:13:47;13.53;;;7.00;;
5555;SDS011;2801;50.972;7.856;2023-03-01T08:16:19;11.37;;;6.00;;
5555;SDS011;2801;50.972;7.856;2023-03-01T08:18:47;12.70;;;7.13;;
5555;SDS011;2801;50.972;7.856;2023-03-01T08:21:14;15.43;;;8.57;;
5555;SDS011;2801;50.972;7.856;2023-03-01T08:23:43;6.93;;;4.07;;
5555;SDS011;2801;50.972;7.856;2023-03-01T08:26:15;11.13;;;4.70;;
5555;SDS011;2801;50.972;7.856;2023-03-01T08:28:45;9.93;;;5.57;;
5555;SDS011;2801;50.972;7.856;2023-03-01T08:31:17;16.77;;;6.23;;
5555;SDS011;2801;50.972;7.856;2023-03-01T08:34:07;7.77;;;4.30;;
5555;SDS011;2801;50.972;7.856;2023-03-01T08:36:39;11.43;;;4.63;;
5555;SDS011;2801;50.972;7.856;2023-03-01T08:39:09;11.83;;;6.30;;
5555;SDS011;2801;50.972;7.856;2023-03-01T08:41:39;15.77;;;7.40;;
5555;SDS011;2801;50.972;7.856;2023-03-01T08:44:07;6.60;;;3.47;;
5555;SDS011;2801;50.972;7.856;2023-03-01T08:46:37;11.17;;;5.47;;
5555;SDS011;2801;50.972;7.856;2023-03-01T08:49:14;9.60;;;3.57;;
5555;SDS011;2801;50.972;7.856;2023-03-01T08:51:44;13.57;;;7.57;;
5555;SDS011;2801;50.972;7.856;2023-03-01T08:54:13;12.90;;;6.33;;
5555;SDS011;2801;50.972;7.856;2023-03-01T08:56:46;6.70;;;4.00;;
5555;SDS011;2801;50.972;7.856;2023-03-01T08:59:15;15.23;;;8.20;;
5555;SDS011;2801;50.972;7.856;2023-03-01T09:01:44;15.90;;;8.17;;
5555;SDS011;2801;50.972;7.856;2023-03-01T09:04:12;9.73;;;5.77;;
5555;SDS011;2801;50.972;7.856;2023-03-01T09:06:40;6.70;;;4.07;;
5555;SDS011;2801;50.972;7.856;2023-03-01T09:09:12;10.03;;;4.77;;
5555;SDS011;2801;50.972;7.856;2023-03-01T09:11:44;11.87;;;6.83;;
5555;SDS011;2801;50.972;7.856;2023-03-01T09:14:13;11.87;;;5.80;;
5555;SDS011;2801;50.972;7.856;2023-03-01T09:16:41;11.90;;;6.17;;
5555;SDS011;2801;50.972;7.856;2023-03-01T09:19:08;11.77;;;5.93;;
5555;SDS011;2801;50.972;7.856;2023-03-01T09:21:35;12.07;;;5.57;;
5555;SDS011;2801;50.972;7.856;2023-03-01T09:24:06;14.33;;;7.77;;
5555;SDS011;2801;50.972;7.856;2023-03-01T09:26:39;9.17;;;3.33;;
5555;SDS011;2801;50.972;7.856;2023-03-01T09:29:06;13.03;;;7.17;;
5555;SDS011;2801;50.972;7.856;2023-03-01T09:31:35;10.87;;;5.20;;
5555;SDS011;2801;50.972;7.856;2023-03-01T09:34:02;8.37;;;4.00;;
5555;SDS011;2801;50.972;7.856;2023-03-01T09:36:30;7.33;;;4.17;;
5555;SDS011;2801;50.972;7.856;2023-03-01T09:38:57;13.47;;;6.80;;
5555;SDS011;2801;50.972;7.856;2023-03-01T09:44:16;8.80;;;4.07;;
5555;SDS011;2801;50.972;7.856;2023-03-01T09:46:57;13.20;;;5.90;;
5555;SDS011;2801;50.972;7.856;2023-03-01T09:49:30;12.07;;;6.00;;
5555;SDS011;2801;50.972;7.856;2023-03-01T09:52:19;10.90;;;5.30;;
5555;SDS011;2801;50.972;7.856;2023-03-01T09:54:55;9.90;;;4.43;;
5555;SDS011;2801;50.972;7.856;2023-03-01T09:57:30;5.43;;;2.97;;
5555;SDS011;2801;50.972;7.856;2023-03-01T10:03:01;6.23;;;2.93;;
5555;SDS011;2801;50.972;7.856;2023-03-01T10:08:42;8.00;;;3.43;;
5555;SDS011;2801;50.972;7.856;2023-03-01T10:11:26;11.63;;;5.53;;
5555;SDS011;2801;50.972;7.856;2023-03-01T10:14:05;8.87;;;4.60;;
5555;SDS011;2801;50.972;7.856;2023-03-01T10:16:57;8.47;;;4.03;;
5555;SDS011;2801;50.972;7.856;2023-03-01T10:19:30;5.33;;;3.10;;
5555;SDS011;2801;50.972;7.856;2023-03-01T10:24:47;6.83;;;4.50;;
5555;SDS011;2801;50.972;7.856;2023-03-01T10:33:13;11.17;;;5.50;;
5555;SDS011;2801;50.972;7.856;2023-03-01T10:35:53;8.73;;;3.93;;
5555;SDS011;2801;50.972;7.856;2023-03-01T10:38:20;9.63;;;5.23;;
5555;SDS011;2801;50.972;7.856;2023-03-01T10:41:04;8.50;;;4.37;;
5555;SDS011;2801;50.972;7.856;2023-03-01T10:43:54;10.00;;;5.57;;
5555;SDS011;2801;50.972;7.856;2023-03-01T10:51:49;4.93;;;3.80;;
5555;SDS011;2801;50.972;7.856;2023-03-01T10:54:29;8.50;;;5.03;;
5555;SDS011;2801;50.972;7.856;2023-03-01T10:57:02;13.20;;;7.07;;
5555;SDS011;2801;50.972;7.856;2023-03-01T10:59:32;10.40;;;5.60;;
5555;SDS011;2801;50.972;7.856;2023-03-01T11:02:20;8.63;;;5.17;;
5555;SDS011;2801;50.972;7.856;2023-03-01T11:05:13;10.13;;;5.93;;
5555;SDS011;2801;50.972;7.856;2023-03-01T11:07:53;13.70;;;6.33;;
5555;SDS011;2801;50.972;7.856;2023-03-01T11:10:24;8.53;;;4.53;;
5555;SDS011;2801;50.972;7.856;2023-03-01T11:13:08;5.00;;;2.83;;
5555;SDS011;2801;50.972;7.856;2023-03-01T11:15:59;4.73;;;2.97;;
5555;SDS011;2801;50.972;7.856;2023-03-01T11:18:30;6.07;;;3.70;;
5555;SDS011;2801;50.972;7.856;2023-03-01T11:21:13;7.60;;;4.17;;
5555;SDS011;2801;50.972;7.856;2023-03-01T11:23:42;6.73;;;3.57;;
5555;SDS011;2801;50.972;7.856;2023-03-01T11:26:12;10.80;;;5.40;;
5555;SDS011;2801;50.972;7.856;2023-03-01T11:28:42;8.93;;;5.17;;
5555;SDS011;2801;50.972;7.856;2023-03-01T11:31:15;9.03;;;4.33;;
5555;SDS011;2801;50.972;7.856;2023-03-01T11:36:53;10.20;;;4.60;;
5555;SDS011;2801;50.972;7.856;2023-03-01T11:39:47;5.43;;;3.30;;
5555;SDS011;2801;50.972;7.856;2023-03-01T11:45:27;7.07;;;3.33;;
5555;SDS011;2801;50.972;7.856;2023-03-01T11:48:41;7.47;;;4.43;;
5555;SDS011;2801;50.972;7.856;2023-03-01T11:51:30;7.67;;;4.03;;
5555;SDS011;2801;50.972;7.856;2023-03-01T11:54:24;8.03;;;2.60;;
5555;SDS011;2801;50.972;7.856;2023-03-01T11:57:01;7.67;;;4.50;;
5555;SDS011;2801;50.972;7.856;2023-03-01T12:02:53;3.00;;;2.00;;
5555;SDS011;2801;50.972;7.856;2023-03-01T12:14:33;11.53;;;3.90;;
5555;SDS011;2801;50.972;7.856;2023-03-01T12:26:13;6.10;;;3.40;;
5555;SDS011;2801;50.972;7.856;2023-03-01T12:29:46;5.57;;;2.87;;
5555;SDS011;2801;50.972;7.856;2023-03-01T12:40:33;7.27;;;4.33;;
5555;SDS011;2801;50.972;7.856;2023-03-01T12:43:20;7.33;;;3.83;;
5555;SDS011;2801;50.972;7.856;2023-03-01T12:46:21;7.00;;;3.70;;
5555;SDS011;2801;50.972;7.856;2023-03-01T12:49:13;4.33;;;2.63;;
5555;SDS011;2801;50.972;7.856;2023-03-01T12:51:57;6.57;;;3.40;;
5555;SDS011;2801;50.972;7.856;2023-03-01T12:54:31;4.37;;;2.03;;
5555;SDS011;2801;50.972;7.856;2023-03-01T12:57:08;7.87;;;4.40;;
5555;SDS011;2801;50.972;7.856;2023-03-01T13:02:55;6.43;;;3.50;;
5555;SDS011;2801;50.972;7.856;2023-03-01T13:08:45;9.13;;;3.10;;
5555;SDS011;2801;50.972;7.856;2023-03-01T13:11:29;7.67;;;3.80;;
5555;SDS011;2801;50.972;7.856;2023-03-01T13:16:54;5.63;;;2.03;;
5555;SDS011;2801;50.972;7.856;2023-03-01T13:19:22;7.33;;;3.50;;
5555;SDS011;2801;50.972;7.856;2023-03-01T13:21:53;7.43;;;4.20;;
5555;SDS011;2801;50.972;7.856;2023-03-01T13:24:24;5.63;;;2.97;;
5555;SDS011;2801;50.972;7.856;2023-03-01T13:29:44;5.87;;;3.37;;
5555;SDS011;2801;50.972;7.856;2023-03-01T13:32:22;4.77;;;2.30;;
5555;SDS011;2801;50.972;7.856;2023-03-01T13:37:45;5.10;;;3.07;;
5555;SDS011;2801;50.972;7.856;2023-03-01T13:42:45;4.73;;;2.80;;
5555;SDS011;2801;50.972;7.856;2023-03-01T13:45:40;1.20;;;1.10;;
5555;SDS011;2801;50.972;7.856;2023-03-01T13:48:18;5.57;;;2.03;;
5555;SDS011;2801;50.972;7.856;2023-03-01T13:50:58;3.37;;;2.23;;
5555;SDS011;2801;50.972;7.856;2023-03-01T13:53:29;5.87;;;2.80;;
5555;SDS011;2801;50.972;7.856;2023-03-01T13:56:03;6.50;;;3.50;;
5555;SDS011;2801;50.972;7.856;2023-03-01T14:01:29;4.93;;;2.90;;
5555;SDS011;2801;50.972;7.856;2023-03-01T14:04:00;4.50;;;1.80;;
5555;SDS011;2801;50.972;7.856;2023-03-01T14:06:31;4.60;;;2.70;;
5555;SDS011;2801;50.972;7.856;2023-03-01T14:09:18;4.10;;;2.17;;
5555;SDS011;2801;50.972;7.856;2023-03-01T14:18:12;2.57;;;1.37;;
5555;SDS011;2801;50.972;7.856;2023-03-01T14:20:50;6.13;;;3.83;;
5555;SDS011;2801;50.972;7.856;2023-03-01T14:23:19;7.03;;;4.47;;
5555;SDS011;2801;50.972;7.856;2023-03-01T14:25:50;8.10;;;4.20;;
5555;SDS011;2801;50.972;7.856;2023-03-01T14:30:55;5.93;;;4.37;;
5555;SDS011;2801;50.972;7.856;2023-03-01T14:33:30;8.03;;;3.73;;
5555;SDS011;2801;50.972;7.856;2023-03-01T14:36:01;8.17;;;4.70;;
5555;SDS011;2801;50.972;7.856;2023-03-01T14:38:48;9.23;;;4.53;;
5555;SDS011;2801;50.972;7.856;2023-03-01T14:43:49;9.67;;;4.63;;
5555;SDS011;2801;50.972;7.856;2023-03-01T14:46:41;10.17;;;5.13;;
5555;SDS011;2801;50.972;7.856;2023-03-01T14:51:51;9.07;;;5.47;;
5555;SDS011;2801;50.972;7.856;2023-03-01T14:54:25;7.43;;;4.73;;
5555;SDS011;2801;50.972;7.856;2023-03-01T14:57:01;10.03;;;4.70;;
5555;SDS011;2801;50.972;7.856;2023-03-01T14:59:28;6.50;;;4.20;;
5555;SDS011;2801;50.972;7.856;2023-03-01T15:01:55;7.63;;;4.40;;
5555;SDS011;2801;50.972;7.856;2023-03-01T15:04:24;8.10;;;4.20;;
5555;SDS011;2801;50.972;7.856;2023-03-01T15:06:54;5.70;;;3.60;;
5555;SDS011;2801;50.972;7.856;2023-03-01T15:09:31;6.83;;;4.50;;
5555;SDS011;2801;50.972;7.856;2023-03-01T15:12:14;6.00;;;3.20;;
5555;SDS011;2801;50.972;7.856;2023-03-01T15:18:03;6.50;;;3.03;;
5555;SDS011;2801;50.972;7.856;2023-03-01T15:20:41;3.30;;;2.00;;
5555;SDS011;2801;50.972;7.856;2023-03-01T15:23:20;6.07;;;3.57;;
5555;SDS011;2801;50.972;7.856;2023-03-01T15:25:52;6.73;;;3.47;;
5555;SDS011;2801;50.972;7.856;2023-03-01T15:28:36;8.07;;;3.87;;
5555;SDS011;2801;50.972;7.856;2023-03-01T15:33:47;7.70;;;4.33;;
5555;SDS011;2801;50.972;7.856;2023-03-01T15:36:49;8.27;;;4.17;;
5555;SDS011;2801;50.972;7.856;2023-03-01T15:45:09;6.13;;;3.43;;
5555;SDS011;2801;50.972;7.856;2023-03-01T15:47:47;7.17;;;4.07;;
5555;SDS011;2801;50.972;7.856;2023-03-01T15:52:59;9.60;;;4.40;;
5555;SDS011;2801;50.972;7.856;2023-03-01T15:55:32;8.43;;;4.70;;
5555;SDS011;2801;50.972;7.856;2023-03-01T15:58:04;10.47;;;4.83;;
5555;SDS011;2801;50.972;7.856;2023-03-01T16:00:38;5.67;;;3.10;;
5555;SDS011;2801;50.972;7.856;2023-03-01T16:03:23;8.33;;;4.67;;
5555;SDS011;2801;50.972;7.856;2023-03-01T16:05:50;6.40;;;3.70;;
5555;SDS011;2801;50.972;7.856;2023-03-01T16:08:18;8.63;;;5.00;;
5555;SDS011;2801;50.972;7.856;2023-03-01T16:10:45;10.13;;;6.30;;
5555;SDS011;2801;50.972;7.856;2023-03-01T16:13:14;8.00;;;5.33;;
5555;SDS011;2801;50.972;7.856;2023-03-01T16:15:41;8.93;;;5.43;;
5555;SDS011;2801;50.972;7.856;2023-03-01T16:18:08;8.40;;;5.00;;
5555;SDS011;2801;50.972;7.856;2023-03-01T16:20:37;7.47;;;3.30;;
5555;SDS011;2801;50.972;7.856;2023-03-01T16:23:05;10.30;;;5.23;;
5555;SDS011;2801;50.972;7.856;2023-03-01T16:25:34;6.97;;;4.03;;
5555;SDS011;2801;50.972;7.856;2023-03-01T16:28:02;8.73;;;4.93;;
5555;SDS011;2801;50.972;7.856;2023-03-01T16:30:35;7.60;;;4.30;;
5555;SDS011;2801;50.972;7.856;2023-03-01T16:33:03;11.50;;;6.77;;
5555;SDS011;2801;50.972;7.856;2023-03-01T16:35:51;12.87;;;6.67;;
5555;SDS011;2801;50.972;7.856;2023-03-01T16:38:18;13.53;;;6.60;;
5555;SDS011;2801;50.972;7.856;2023-03-01T16:40:49;10.87;;;6.07;;
5555;SDS011;2801;50.972;7.856;2023-03-01T16:43:17;9.17;;;4.93;;
5555;SDS011;2801;50.972;7.856;2023-03-01T16:45:44;9.07;;;4.80;;
5555;SDS011;2801;50.972;7.856;2023-03-01T16:48:12;7.93;;;4.93;;
5555;SDS011;2801;50.972;7.856;2023-03-01T16:50:39;7.73;;;4.37;;
5555;SDS011;2801;50.972;7.856;2023-03-01T16:53:06;7.83;;;4.57;;
5555;SDS011;2801;50.972;7.856;2023-03-01T16:55:33;9.93;;;5.17;;
5555;SDS011;2801;50.972;7.856;2023-03-01T16:58:00;9.73;;;5.23;;
5555;SDS011;2801;50.972;7.856;2023-03-01T17:00:28;8.33;;;4.63;;
5555;SDS011;2801;50.972;7.856;2023-03-01T17:02:55;9.40;;;5.07;;
5555;SDS011;2801;50.972;7.856;2023-03-01T17:05:22;9.93;;;5.23;;
5555;SDS011;2801;50.972;7.856;2023-03-01T17:07:50;7.93;;;5.27;;
5555;SDS011;2801;50.972;7.856;2023-03-01T17:10:17;9.17;;;5.80;;
5555;SDS011;2801;50.972;7.856;2023-03-01T17:12:47;11.77;;;6.13;;
5555;SDS011;2801;50.972;7.856;2023-03-01T17:15:16;9.63;;;5.83;;
5555;SDS011;2801;50.972;7.856;2023-03-01T17:17:43;10.70;;;6.30;;
5555;SDS011;2801;50.972;7.856;2023-03-01T17:20:10;12.73;;;6.00;;
5555;SDS011;2801;50.972;7.856;2023-03-01T17:22:37;10.93;;;6.17;;
5555;SDS011;2801;50.972;7.856;2023-03-01T17:25:06;10.97;;;6.17;;
5555;SDS011;2801;50.972;7.856;2023-03-01T17:27:38;10.97;;;5.73;;